Aviation

FTHA31 MTPP 191600
TAF MTPP 191600Z 1918/2018 06010KT 9000 FEW026
BECMG 1919/1922 28008KT
PROB30 TEMPO 2000/2006 4500 -TSRA SCT022CB BKN050
BECMG 2008/2012 09012KT 7000 NSW FEW018
FM201700 16010G20KT 4000 SHRA SCT022CB BNK040=